New Dawn — WDB9910 — position and weather

sailwx.info

Track history (hours):
 
Tides and Currents Weather Stations Pressure Air Temp Water Temp Dewpoint Dewpoint Depression Visibility Wind Speed Wind Dir Waves Ship Positions

New Dawn

Owner: American River Transportation Company, St Louis, MO. More information available from US FCC via Universal Licensing System and Coast Guard Vessel Documentation Center.

Last reported at 2018-May-15 14:20 UTC. Time now 2018-Jun-22 15:21 UTC.
Position N 38°49' W 090°07'.
Warning: this ship's position is 38 days out of date.

Type: Towing. MMSI: 366984950.

Date/timePositionNaut miles runAvg speedWind from/ knotsBaromVisibWave heightAir tempDewpointWater temp
2018-May-15 14:20N 38°49' W 090°07'2 7.8
2018-May-15 14:00N 38°51' W 090°07'2 4.3
2018-May-15 13:30N 38°52' W 090°09'1 2.5
2018-May-15 13:00N 38°53' W 090°10'4 7.3
2018-May-15 12:30N 38°55' W 090°14'3 6.9
2018-May-15 12:00N 38°55' W 090°19'3 6.9
2018-May-15 11:30N 38°57' W 090°22'4 7.2
2018-May-15 11:00N 38°58' W 090°27'2 4.8
2018-May-15 10:30N 38°58' W 090°30'2 3.8
2018-May-15 10:00N 38°58' W 090°32'2 4.8
2018-May-15 09:30N 38°60' W 090°34'2 4.6
2018-May-15 09:00N 39°02' W 090°35'2 3.4
2018-May-15 08:30N 39°04' W 090°35'2 4.3
2018-May-15 08:00N 39°06' W 090°36'2 4.4
2018-May-15 07:30N 39°08' W 090°37'2 4.7
2018-May-15 07:00N 39°10' W 090°37'2 4.2
2018-May-15 06:30N 39°12' W 090°35'14 4.3
2018-May-15 03:18N 39°26' W 090°37'2 4.7
2018-May-15 02:53N 39°28' W 090°36'2 4.7
2018-May-15 02:30N 39°29' W 090°35'  
2018-May-11 16:06N 39°11' W 090°36'0 4.6
2018-May-11 16:00N 39°10' W 090°36'3 4.6
2018-May-11 15:22N 39°08' W 090°36'2 4.6
2018-May-11 14:59N 39°06' W 090°36'3 4.2
2018-May-11 14:16N 39°03' W 090°35'1 4.4
2018-May-11 14:00N 39°02' W 090°35'2 4.7
2018-May-11 13:30N 38°60' W 090°34'2 4.8
2018-May-11 13:00N 38°58' W 090°32'2 4.0
2018-May-11 12:30N 38°58' W 090°30'3 5.4
2018-May-11 12:00N 38°58' W 090°26'2 4.8
2018-May-11 11:30N 38°58' W 090°23'2 3.2
2018-May-11 11:00N 38°57' W 090°22'3 5.2
2018-May-11 10:30N 38°55' W 090°19'3 5.2
2018-May-11 10:00N 38°55' W 090°15'2 4.6
2018-May-11 09:30N 38°54' W 090°13'2 3.7
2018-May-11 09:00N 38°53' W 090°11'2 3.9
2018-May-11 08:30N 38°52' W 090°09'0 0.6
2018-May-11 08:00N 38°52' W 090°09'1 1.1
2018-May-11 07:30N 38°52' W 090°08'0 0.0
2018-May-11 07:00N 38°52' W 090°08'0 0.2
2018-May-11 06:30N 38°52' W 090°08'2 3.7
2018-May-11 06:00N 38°50' W 090°06'3 5.2
2018-May-11 05:30N 38°48' W 090°07'2 4.7
2018-May-11 05:00N 38°45' W 090°09'2 3.8
2018-May-11 04:30N 38°44' W 090°10'2 3.9
2018-May-11 04:00N 38°42' W 090°11'0 1.0
2018-May-11 03:30N 38°42' W 090°11'0 0.2
2018-May-11 02:59N 38°42' W 090°11'0 0.0
2018-May-11 02:28N 38°42' W 090°11'0 0.0
2018-May-11 02:00N 38°42' W 090°11'0 0.1
2018-May-11 01:29N 38°42' W 090°11'1 2.1
2018-May-11 01:00N 38°41' W 090°11'3 4.9
2018-May-11 00:30N 38°38' W 090°11'6 0.1
2018-May-09 08:23N 38°44' W 090°10'1 2.0
2018-May-09 08:00N 38°45' W 090°09'0 0.9
2018-May-09 07:29N 38°45' W 090°09'2 2.8
2018-May-09 06:47N 38°47' W 090°08'1 5.3
2018-May-09 06:30N 38°48' W 090°07'3 6.2
2018-May-09 06:00N 38°51' W 090°07'2 2.9
2018-May-09 05:27N 38°52' W 090°09'1 2.9
2018-May-09 05:00N 38°53' W 090°10'3 6.1
2018-May-09 04:30N 38°55' W 090°14'3 6.5
2018-May-09 04:00N 38°55' W 090°18'3 6.5
2018-May-09 03:30N 38°57' W 090°21'4 7.1
2018-May-09 03:00N 38°58' W 090°26'3 5.8
2018-May-09 02:30N 38°58' W 090°29'2 4.4
2018-May-09 02:00N 38°58' W 090°32'3 5.1
2018-May-09 01:30N 38°60' W 090°34'3 5.0
2018-May-09 01:00N 39°02' W 090°35'2 3.9
2018-May-09 00:30N 39°04' W 090°35'2 3.3
2018-May-09 00:00N 39°06' W 090°36'1 2.2
2018-May-08 23:30N 39°07' W 090°36'2 4.5
2018-May-08 23:00N 39°09' W 090°37'2 4.7
2018-May-08 22:30N 39°11' W 090°36'  
Track history (hours):
 
Tides and Currents Weather Stations Pressure Air Temp Water Temp Dewpoint Dewpoint Depression Visibility Wind Speed Wind Dir Waves Ship Positions

New Dawn

Owner: American River Transportation Company, St Louis, MO. More information available from US FCC via Universal Licensing System and Coast Guard Vessel Documentation Center.

Last reported at 2018-May-15 14:20 UTC. Time now 2018-Jun-22 15:21 UTC.
Position N 38°49' W 090°07'.
Warning: this ship's position is 38 days out of date.

Type: Towing. MMSI: 366984950.

Date/timePositionNaut miles runAvg speedWind from/ knotsBaromVisibWave heightAir tempDewpointWater temp
2018-May-15 14:20N 38°49' W 090°07'2 7.8
2018-May-15 14:00N 38°51' W 090°07'2 4.3
2018-May-15 13:30N 38°52' W 090°09'1 2.5
2018-May-15 13:00N 38°53' W 090°10'4 7.3
2018-May-15 12:30N 38°55' W 090°14'3 6.9
2018-May-15 12:00N 38°55' W 090°19'3 6.9
2018-May-15 11:30N 38°57' W 090°22'4 7.2
2018-May-15 11:00N 38°58' W 090°27'2 4.8
2018-May-15 10:30N 38°58' W 090°30'2 3.8
2018-May-15 10:00N 38°58' W 090°32'2 4.8
2018-May-15 09:30N 38°60' W 090°34'2 4.6
2018-May-15 09:00N 39°02' W 090°35'2 3.4
2018-May-15 08:30N 39°04' W 090°35'2 4.3
2018-May-15 08:00N 39°06' W 090°36'2 4.4
2018-May-15 07:30N 39°08' W 090°37'2 4.7
2018-May-15 07:00N 39°10' W 090°37'2 4.2
2018-May-15 06:30N 39°12' W 090°35'14 4.3
2018-May-15 03:18N 39°26' W 090°37'2 4.7
2018-May-15 02:53N 39°28' W 090°36'2 4.7
2018-May-15 02:30N 39°29' W 090°35'  
2018-May-11 16:06N 39°11' W 090°36'0 4.6
2018-May-11 16:00N 39°10' W 090°36'3 4.6
2018-May-11 15:22N 39°08' W 090°36'2 4.6
2018-May-11 14:59N 39°06' W 090°36'3 4.2
2018-May-11 14:16N 39°03' W 090°35'1 4.4
2018-May-11 14:00N 39°02' W 090°35'2 4.7
2018-May-11 13:30N 38°60' W 090°34'2 4.8
2018-May-11 13:00N 38°58' W 090°32'2 4.0
2018-May-11 12:30N 38°58' W 090°30'3 5.4
2018-May-11 12:00N 38°58' W 090°26'2 4.8
2018-May-11 11:30N 38°58' W 090°23'2 3.2
2018-May-11 11:00N 38°57' W 090°22'3 5.2
2018-May-11 10:30N 38°55' W 090°19'3 5.2
2018-May-11 10:00N 38°55' W 090°15'2 4.6
2018-May-11 09:30N 38°54' W 090°13'2 3.7
2018-May-11 09:00N 38°53' W 090°11'2 3.9
2018-May-11 08:30N 38°52' W 090°09'0 0.6
2018-May-11 08:00N 38°52' W 090°09'1 1.1
2018-May-11 07:30N 38°52' W 090°08'0 0.0
2018-May-11 07:00N 38°52' W 090°08'0 0.2
2018-May-11 06:30N 38°52' W 090°08'2 3.7
2018-May-11 06:00N 38°50' W 090°06'3 5.2
2018-May-11 05:30N 38°48' W 090°07'2 4.7
2018-May-11 05:00N 38°45' W 090°09'2 3.8
2018-May-11 04:30N 38°44' W 090°10'2 3.9
2018-May-11 04:00N 38°42' W 090°11'0 1.0
2018-May-11 03:30N 38°42' W 090°11'0 0.2
2018-May-11 02:59N 38°42' W 090°11'0 0.0
2018-May-11 02:28N 38°42' W 090°11'0 0.0
2018-May-11 02:00N 38°42' W 090°11'0 0.1
2018-May-11 01:29N 38°42' W 090°11'1 2.1
2018-May-11 01:00N 38°41' W 090°11'3 4.9
2018-May-11 00:30N 38°38' W 090°11'6 0.1
2018-May-09 08:23N 38°44' W 090°10'1 2.0
2018-May-09 08:00N 38°45' W 090°09'0 0.9
2018-May-09 07:29N 38°45' W 090°09'2 2.8
2018-May-09 06:47N 38°47' W 090°08'1 5.3
2018-May-09 06:30N 38°48' W 090°07'3 6.2
2018-May-09 06:00N 38°51' W 090°07'2 2.9
2018-May-09 05:27N 38°52' W 090°09'1 2.9
2018-May-09 05:00N 38°53' W 090°10'3 6.1
2018-May-09 04:30N 38°55' W 090°14'3 6.5
2018-May-09 04:00N 38°55' W 090°18'3 6.5
2018-May-09 03:30N 38°57' W 090°21'4 7.1
2018-May-09 03:00N 38°58' W 090°26'3 5.8
2018-May-09 02:30N 38°58' W 090°29'2 4.4
2018-May-09 02:00N 38°58' W 090°32'3 5.1
2018-May-09 01:30N 38°60' W 090°34'3 5.0
2018-May-09 01:00N 39°02' W 090°35'2 3.9
2018-May-09 00:30N 39°04' W 090°35'2 3.3
2018-May-09 00:00N 39°06' W 090°36'1 2.2
2018-May-08 23:30N 39°07' W 090°36'2 4.5
2018-May-08 23:00N 39°09' W 090°37'2 4.7
2018-May-08 22:30N 39°11' W 090°36'  

Dump ship's entire track history